sensor_id;sensor_type;location;lat;lon;timestamp;temperature;humidity
10788;DHT22;5446;50.826;4.380;2023-07-29T00:01:40;19.50;99.90
10788;DHT22;5446;50.826;4.380;2023-07-29T00:04:07;19.40;99.90
10788;DHT22;5446;50.826;4.380;2023-07-29T00:06:34;19.40;99.90
10788;DHT22;5446;50.826;4.380;2023-07-29T00:09:00;19.40;99.90
10788;DHT22;5446;50.826;4.380;2023-07-29T00:11:25;19.30;99.90
10788;DHT22;5446;50.826;4.380;2023-07-29T00:13:51;19.20;99.90
10788;DHT22;5446;50.826;4.380;2023-07-29T00:16:18;19.20;99.90
10788;DHT22;5446;50.826;4.380;2023-07-29T00:18:47;19.10;99.90
10788;DHT22;5446;50.826;4.380;2023-07-29T00:21:13;19.10;99.90
10788;DHT22;5446;50.826;4.380;2023-07-29T00:23:39;19.00;99.90
10788;DHT22;5446;50.826;4.380;2023-07-29T00:26:05;18.90;99.90
10788;DHT22;5446;50.826;4.380;2023-07-29T00:28:30;18.90;99.90
10788;DHT22;5446;50.826;4.380;2023-07-29T00:30:56;18.80;99.90
10788;DHT22;5446;50.826;4.380;2023-07-29T00:33:22;18.80;99.90
10788;DHT22;5446;50.826;4.380;2023-07-29T00:35:48;18.70;99.90
10788;DHT22;5446;50.826;4.380;2023-07-29T00:38:13;18.70;99.90
10788;DHT22;5446;50.826;4.380;2023-07-29T00:40:39;18.70;99.90
10788;DHT22;5446;50.826;4.380;2023-07-29T00:43:05;18.60;99.90
10788;DHT22;5446;50.826;4.380;2023-07-29T00:45:32;18.60;99.90
10788;DHT22;5446;50.826;4.380;2023-07-29T00:47:58;18.60;99.90
10788;DHT22;5446;50.826;4.380;2023-07-29T00:50:24;18.60;99.90
10788;DHT22;5446;50.826;4.380;2023-07-29T00:52:53;18.50;99.90
10788;DHT22;5446;50.826;4.380;2023-07-29T00:55:19;18.50;99.90
10788;DHT22;5446;50.826;4.380;2023-07-29T00:57:45;18.40;99.90
10788;DHT22;5446;50.826;4.380;2023-07-29T01:00:14;18.40;99.90
10788;DHT22;5446;50.826;4.380;2023-07-29T01:02:44;18.40;99.90
10788;DHT22;5446;50.826;4.380;2023-07-29T01:05:13;18.40;99.90
10788;DHT22;5446;50.826;4.380;2023-07-29T01:08:09;18.40;99.90
10788;DHT22;5446;50.826;4.380;2023-07-29T01:16:14;18.20;99.90
10788;DHT22;5446;50.826;4.380;2023-07-29T01:18:43;18.20;99.90
10788;DHT22;5446;50.826;4.380;2023-07-29T01:21:13;18.20;99.90
10788;DHT22;5446;50.826;4.380;2023-07-29T01:23:39;18.20;99.90
10788;DHT22;5446;50.826;4.380;2023-07-29T01:26:05;18.20;99.90
10788;DHT22;5446;50.826;4.380;2023-07-29T01:28:31;18.20;99.90
10788;DHT22;5446;50.826;4.380;2023-07-29T01:34:09;18.10;99.90
10788;DHT22;5446;50.826;4.380;2023-07-29T01:36:40;18.10;99.90
10788;DHT22;5446;50.826;4.380;2023-07-29T01:39:07;18.20;99.90
10788;DHT22;5446;50.826;4.380;2023-07-29T01:41:34;18.20;99.90
10788;DHT22;5446;50.826;4.380;2023-07-29T01:44:01;18.10;99.90
10788;DHT22;5446;50.826;4.380;2023-07-29T01:46:27;18.10;99.90
10788;DHT22;5446;50.826;4.380;2023-07-29T01:48:53;18.00;99.90
10788;DHT22;5446;50.826;4.380;2023-07-29T01:51:19;18.10;99.90
10788;DHT22;5446;50.826;4.380;2023-07-29T01:53:45;18.00;99.90
10788;DHT22;5446;50.826;4.380;2023-07-29T01:56:10;18.00;99.90
10788;DHT22;5446;50.826;4.380;2023-07-29T01:58:36;18.00;99.90
10788;DHT22;5446;50.826;4.380;2023-07-29T02:01:02;18.00;99.90
10788;DHT22;5446;50.826;4.380;2023-07-29T02:03:27;18.00;99.90
10788;DHT22;5446;50.826;4.380;2023-07-29T02:05:53;17.90;99.90
10788;DHT22;5446;50.826;4.380;2023-07-29T02:08:19;17.90;99.90
10788;DHT22;5446;50.826;4.380;2023-07-29T02:10:44;17.90;99.90
10788;DHT22;5446;50.826;4.380;2023-07-29T02:13:11;17.90;99.90
10788;DHT22;5446;50.826;4.380;2023-07-29T02:15:37;17.90;99.90
10788;DHT22;5446;50.826;4.380;2023-07-29T02:18:02;17.80;99.90
10788;DHT22;5446;50.826;4.380;2023-07-29T02:20:30;17.80;99.90
10788;DHT22;5446;50.826;4.380;2023-07-29T02:22:55;17.80;99.90
10788;DHT22;5446;50.826;4.380;2023-07-29T02:25:21;17.80;99.90
10788;DHT22;5446;50.826;4.380;2023-07-29T02:27:47;17.80;99.90
10788;DHT22;5446;50.826;4.380;2023-07-29T02:30:12;17.80;99.90
10788;DHT22;5446;50.826;4.380;2023-07-29T02:32:38;17.80;99.90
10788;DHT22;5446;50.826;4.380;2023-07-29T02:35:04;17.80;99.90
10788;DHT22;5446;50.826;4.380;2023-07-29T02:37:30;17.70;99.90
10788;DHT22;5446;50.826;4.380;2023-07-29T02:39:56;17.80;99.90
10788;DHT22;5446;50.826;4.380;2023-07-29T02:42:21;17.80;99.90
10788;DHT22;5446;50.826;4.380;2023-07-29T02:44:47;17.80;99.90
10788;DHT22;5446;50.826;4.380;2023-07-29T02:47:13;17.80;99.90
10788;DHT22;5446;50.826;4.380;2023-07-29T02:49:39;17.80;99.90
10788;DHT22;5446;50.826;4.380;2023-07-29T02:52:05;17.80;99.90
10788;DHT22;5446;50.826;4.380;2023-07-29T02:54:30;17.70;99.90
10788;DHT22;5446;50.826;4.380;2023-07-29T02:56:56;17.80;99.90
10788;DHT22;5446;50.826;4.380;2023-07-29T02:59:22;17.80;99.90
10788;DHT22;5446;50.826;4.380;2023-07-29T03:01:47;17.70;99.90
10788;DHT22;5446;50.826;4.380;2023-07-29T03:04:13;17.70;99.90
10788;DHT22;5446;50.826;4.380;2023-07-29T03:06:39;17.70;99.90
10788;DHT22;5446;50.826;4.380;2023-07-29T03:09:04;17.70;99.90
10788;DHT22;5446;50.826;4.380;2023-07-29T03:11:30;17.60;99.90
10788;DHT22;5446;50.826;4.380;2023-07-29T03:13:57;17.60;99.90
10788;DHT22;5446;50.826;4.380;2023-07-29T03:16:22;17.60;99.90
10788;DHT22;5446;50.826;4.380;2023-07-29T03:18:49;17.60;99.90
10788;DHT22;5446;50.826;4.380;2023-07-29T03:21:15;17.60;99.90
10788;DHT22;5446;50.826;4.380;2023-07-29T03:23:41;17.60;99.90
10788;DHT22;5446;50.826;4.380;2023-07-29T03:26:07;17.60;99.90
10788;DHT22;5446;50.826;4.380;2023-07-29T03:28:43;17.60;99.90
10788;DHT22;5446;50.826;4.380;2023-07-29T03:31:09;17.60;99.90
10788;DHT22;5446;50.826;4.380;2023-07-29T03:33:35;17.50;99.90
10788;DHT22;5446;50.826;4.380;2023-07-29T03:36:01;17.50;99.90
10788;DHT22;5446;50.826;4.380;2023-07-29T03:38:27;17.50;99.90
10788;DHT22;5446;50.826;4.380;2023-07-29T03:40:53;17.50;99.90
10788;DHT22;5446;50.826;4.380;2023-07-29T03:43:19;17.40;99.90
10788;DHT22;5446;50.826;4.380;2023-07-29T03:45:44;17.40;99.90
10788;DHT22;5446;50.826;4.380;2023-07-29T03:48:10;17.50;99.90
10788;DHT22;5446;50.826;4.380;2023-07-29T03:50:36;17.50;99.90
10788;DHT22;5446;50.826;4.380;2023-07-29T03:53:02;17.40;99.90
10788;DHT22;5446;50.826;4.380;2023-07-29T03:55:28;17.40;99.90
10788;DHT22;5446;50.826;4.380;2023-07-29T03:57:57;17.40;99.90
10788;DHT22;5446;50.826;4.380;2023-07-29T04:00:23;17.40;99.90
10788;DHT22;5446;50.826;4.380;2023-07-29T04:02:49;17.40;99.90
10788;DHT22;5446;50.826;4.380;2023-07-29T04:05:15;17.40;99.90
10788;DHT22;5446;50.826;4.380;2023-07-29T04:07:40;17.40;99.90
10788;DHT22;5446;50.826;4.380;2023-07-29T04:10:07;17.40;99.90
10788;DHT22;5446;50.826;4.380;2023-07-29T04:12:33;17.40;99.90
10788;DHT22;5446;50.826;4.380;2023-07-29T04:14:58;17.40;99.90
10788;DHT22;5446;50.826;4.380;2023-07-29T04:17:24;17.40;99.90
10788;DHT22;5446;50.826;4.380;2023-07-29T04:19:50;17.40;99.90
10788;DHT22;5446;50.826;4.380;2023-07-29T04:22:16;17.40;99.90
10788;DHT22;5446;50.826;4.380;2023-07-29T04:24:42;17.40;99.90
10788;DHT22;5446;50.826;4.380;2023-07-29T04:27:08;17.50;99.90
10788;DHT22;5446;50.826;4.380;2023-07-29T04:29:33;17.50;99.90
10788;DHT22;5446;50.826;4.380;2023-07-29T04:32:01;17.50;99.90
10788;DHT22;5446;50.826;4.380;2023-07-29T04:34:27;17.50;99.90
10788;DHT22;5446;50.826;4.380;2023-07-29T04:36:53;17.50;99.90
10788;DHT22;5446;50.826;4.380;2023-07-29T04:39:18;17.50;99.90
10788;DHT22;5446;50.826;4.380;2023-07-29T04:41:44;17.50;99.90
10788;DHT22;5446;50.826;4.380;2023-07-29T04:44:10;17.50;99.90
10788;DHT22;5446;50.826;4.380;2023-07-29T04:46:36;17.50;99.90
10788;DHT22;5446;50.826;4.380;2023-07-29T04:49:02;17.40;99.90
10788;DHT22;5446;50.826;4.380;2023-07-29T04:51:28;17.50;99.90
10788;DHT22;5446;50.826;4.380;2023-07-29T04:53:54;17.50;99.90
10788;DHT22;5446;50.826;4.380;2023-07-29T04:56:20;17.50;99.90
10788;DHT22;5446;50.826;4.380;2023-07-29T04:58:45;17.50;99.90
10788;DHT22;5446;50.826;4.380;2023-07-29T05:01:11;17.60;99.90
10788;DHT22;5446;50.826;4.380;2023-07-29T05:03:38;17.50;99.90
10788;DHT22;5446;50.826;4.380;2023-07-29T05:06:05;17.50;99.90
10788;DHT22;5446;50.826;4.380;2023-07-29T05:08:31;17.50;99.90
10788;DHT22;5446;50.826;4.380;2023-07-29T05:10:56;17.50;99.90
10788;DHT22;5446;50.826;4.380;2023-07-29T05:13:23;17.50;99.90
10788;DHT22;5446;50.826;4.380;2023-07-29T05:15:49;17.50;99.90
10788;DHT22;5446;50.826;4.380;2023-07-29T05:18:15;17.50;99.90
10788;DHT22;5446;50.826;4.380;2023-07-29T05:20:41;17.50;99.90
10788;DHT22;5446;50.826;4.380;2023-07-29T05:23:07;17.50;99.90
10788;DHT22;5446;50.826;4.380;2023-07-29T05:25:33;17.50;99.90
10788;DHT22;5446;50.826;4.380;2023-07-29T05:28:02;17.50;99.90
10788;DHT22;5446;50.826;4.380;2023-07-29T05:30:29;17.50;99.90
10788;DHT22;5446;50.826;4.380;2023-07-29T05:33:00;17.50;99.90
10788;DHT22;5446;50.826;4.380;2023-07-29T05:35:26;17.50;99.90
10788;DHT22;5446;50.826;4.380;2023-07-29T05:37:52;17.60;99.90
10788;DHT22;5446;50.826;4.380;2023-07-29T05:40:18;17.60;99.90
10788;DHT22;5446;50.826;4.380;2023-07-29T05:42:45;17.70;99.90
10788;DHT22;5446;50.826;4.380;2023-07-29T05:45:11;17.80;99.90
10788;DHT22;5446;50.826;4.380;2023-07-29T05:47:37;17.90;99.90
10788;DHT22;5446;50.826;4.380;2023-07-29T05:50:03;18.00;99.90
10788;DHT22;5446;50.826;4.380;2023-07-29T05:52:30;18.00;99.90
10788;DHT22;5446;50.826;4.380;2023-07-29T05:54:56;18.10;99.90
10788;DHT22;5446;50.826;4.380;2023-07-29T05:57:22;18.20;99.90
10788;DHT22;5446;50.826;4.380;2023-07-29T05:59:48;18.30;99.90
10788;DHT22;5446;50.826;4.380;2023-07-29T06:02:14;18.40;99.90
10788;DHT22;5446;50.826;4.380;2023-07-29T06:04:40;18.40;99.90
10788;DHT22;5446;50.826;4.380;2023-07-29T06:07:05;18.40;99.90
10788;DHT22;5446;50.826;4.380;2023-07-29T06:09:31;18.40;99.90
10788;DHT22;5446;50.826;4.380;2023-07-29T06:11:57;18.50;99.90
10788;DHT22;5446;50.826;4.380;2023-07-29T06:14:23;18.50;99.90
10788;DHT22;5446;50.826;4.380;2023-07-29T06:16:49;18.60;99.90
10788;DHT22;5446;50.826;4.380;2023-07-29T06:19:14;18.70;99.90
10788;DHT22;5446;50.826;4.380;2023-07-29T06:21:40;18.80;99.90
10788;DHT22;5446;50.826;4.380;2023-07-29T06:24:06;18.90;99.90
10788;DHT22;5446;50.826;4.380;2023-07-29T06:26:31;19.00;99.90
10788;DHT22;5446;50.826;4.380;2023-07-29T06:28:57;19.10;99.90
10788;DHT22;5446;50.826;4.380;2023-07-29T06:31:23;19.10;99.90
10788;DHT22;5446;50.826;4.380;2023-07-29T06:33:48;19.20;99.90
10788;DHT22;5446;50.826;4.380;2023-07-29T06:36:14;19.30;99.90
10788;DHT22;5446;50.826;4.380;2023-07-29T06:38:40;19.30;99.90
10788;DHT22;5446;50.826;4.380;2023-07-29T06:41:06;19.30;99.90
10788;DHT22;5446;50.826;4.380;2023-07-29T06:43:32;19.30;99.90
10788;DHT22;5446;50.826;4.380;2023-07-29T06:45:58;19.50;99.90
10788;DHT22;5446;50.826;4.380;2023-07-29T06:48:23;19.60;99.90
10788;DHT22;5446;50.826;4.380;2023-07-29T06:50:49;19.60;99.90
10788;DHT22;5446;50.826;4.380;2023-07-29T06:53:16;19.60;99.90
10788;DHT22;5446;50.826;4.380;2023-07-29T06:55:42;19.60;99.90
10788;DHT22;5446;50.826;4.380;2023-07-29T06:58:08;19.60;99.90
10788;DHT22;5446;50.826;4.380;2023-07-29T07:00:34;19.60;99.90
10788;DHT22;5446;50.826;4.380;2023-07-29T07:02:59;19.60;99.90
10788;DHT22;5446;50.826;4.380;2023-07-29T07:05:25;19.60;99.90
10788;DHT22;5446;50.826;4.380;2023-07-29T07:07:51;19.40;99.90
10788;DHT22;5446;50.826;4.380;2023-07-29T07:10:16;19.40;99.90
10788;DHT22;5446;50.826;4.380;2023-07-29T07:12:42;19.30;99.90
10788;DHT22;5446;50.826;4.380;2023-07-29T07:15:08;19.40;99.90
10788;DHT22;5446;50.826;4.380;2023-07-29T07:17:34;19.40;99.90
10788;DHT22;5446;50.826;4.380;2023-07-29T07:19:59;19.50;99.90
10788;DHT22;5446;50.826;4.380;2023-07-29T07:22:25;19.50;99.90
10788;DHT22;5446;50.826;4.380;2023-07-29T07:24:51;19.50;99.90
10788;DHT22;5446;50.826;4.380;2023-07-29T07:27:16;19.40;99.90
10788;DHT22;5446;50.826;4.380;2023-07-29T07:29:42;19.40;99.90
10788;DHT22;5446;50.826;4.380;2023-07-29T07:32:08;19.40;99.90
10788;DHT22;5446;50.826;4.380;2023-07-29T07:34:33;19.30;99.90
10788;DHT22;5446;50.826;4.380;2023-07-29T07:37:00;19.30;99.90
10788;DHT22;5446;50.826;4.380;2023-07-29T07:39:26;19.30;99.90
10788;DHT22;5446;50.826;4.380;2023-07-29T07:41:51;19.30;99.90
10788;DHT22;5446;50.826;4.380;2023-07-29T07:44:17;19.30;99.90
10788;DHT22;5446;50.826;4.380;2023-07-29T07:46:45;19.60;99.90
10788;DHT22;5446;50.826;4.380;2023-07-29T07:49:11;19.80;99.90
10788;DHT22;5446;50.826;4.380;2023-07-29T07:51:38;19.90;99.90
10788;DHT22;5446;50.826;4.380;2023-07-29T07:54:04;20.00;99.90
10788;DHT22;5446;50.826;4.380;2023-07-29T07:56:29;20.00;99.90
10788;DHT22;5446;50.826;4.380;2023-07-29T07:58:55;20.10;99.90
10788;DHT22;5446;50.826;4.380;2023-07-29T08:01:20;20.10;99.90
10788;DHT22;5446;50.826;4.380;2023-07-29T08:03:46;20.20;99.90
10788;DHT22;5446;50.826;4.380;2023-07-29T08:06:12;20.30;99.90
10788;DHT22;5446;50.826;4.380;2023-07-29T08:08:38;20.30;99.90
10788;DHT22;5446;50.826;4.380;2023-07-29T08:11:03;20.40;99.90
10788;DHT22;5446;50.826;4.380;2023-07-29T08:13:29;20.60;99.90
10788;DHT22;5446;50.826;4.380;2023-07-29T08:15:55;20.70;99.90
10788;DHT22;5446;50.826;4.380;2023-07-29T08:18:20;20.70;99.90
10788;DHT22;5446;50.826;4.380;2023-07-29T08:20:57;20.90;99.90
10788;DHT22;5446;50.826;4.380;2023-07-29T08:23:25;20.90;99.90
10788;DHT22;5446;50.826;4.380;2023-07-29T08:25:55;20.80;99.90
10788;DHT22;5446;50.826;4.380;2023-07-29T08:28:24;20.80;99.90
10788;DHT22;5446;50.826;4.380;2023-07-29T08:30:50;20.90;99.90
10788;DHT22;5446;50.826;4.380;2023-07-29T08:33:16;21.00;99.90
10788;DHT22;5446;50.826;4.380;2023-07-29T08:35:41;20.90;99.90
10788;DHT22;5446;50.826;4.380;2023-07-29T08:38:07;21.00;99.90
10788;DHT22;5446;50.826;4.380;2023-07-29T08:40:34;21.00;99.90
10788;DHT22;5446;50.826;4.380;2023-07-29T08:43:04;21.00;99.90
10788;DHT22;5446;50.826;4.380;2023-07-29T08:45:36;21.10;99.90
10788;DHT22;5446;50.826;4.380;2023-07-29T08:48:04;21.10;99.90
10788;DHT22;5446;50.826;4.380;2023-07-29T08:50:33;21.10;99.90
10788;DHT22;5446;50.826;4.380;2023-07-29T08:53:00;21.10;99.90
10788;DHT22;5446;50.826;4.380;2023-07-29T08:55:27;21.30;99.90
10788;DHT22;5446;50.826;4.380;2023-07-29T08:57:53;21.40;99.90
10788;DHT22;5446;50.826;4.380;2023-07-29T09:00:19;21.50;99.90
10788;DHT22;5446;50.826;4.380;2023-07-29T09:02:45;21.50;99.90
10788;DHT22;5446;50.826;4.380;2023-07-29T09:05:11;21.60;99.90
10788;DHT22;5446;50.826;4.380;2023-07-29T09:07:37;21.80;99.90
10788;DHT22;5446;50.826;4.380;2023-07-29T09:10:04;21.80;99.90
10788;DHT22;5446;50.826;4.380;2023-07-29T09:12:29;21.80;99.90
10788;DHT22;5446;50.826;4.380;2023-07-29T09:14:55;21.80;99.90
10788;DHT22;5446;50.826;4.380;2023-07-29T09:17:21;22.00;99.90
10788;DHT22;5446;50.826;4.380;2023-07-29T09:19:50;22.00;99.90
10788;DHT22;5446;50.826;4.380;2023-07-29T09:22:20;22.10;99.90
10788;DHT22;5446;50.826;4.380;2023-07-29T09:24:47;22.10;99.90
10788;DHT22;5446;50.826;4.380;2023-07-29T09:27:24;22.20;99.90
10788;DHT22;5446;50.826;4.380;2023-07-29T09:29:50;22.30;99.90
10788;DHT22;5446;50.826;4.380;2023-07-29T09:32:23;22.40;99.90
10788;DHT22;5446;50.826;4.380;2023-07-29T09:34:49;22.50;99.90
10788;DHT22;5446;50.826;4.380;2023-07-29T09:37:18;22.70;99.90
10788;DHT22;5446;50.826;4.380;2023-07-29T09:39:47;22.70;99.90
10788;DHT22;5446;50.826;4.380;2023-07-29T09:42:20;22.70;99.90
10788;DHT22;5446;50.826;4.380;2023-07-29T09:44:51;22.50;99.90
10788;DHT22;5446;50.826;4.380;2023-07-29T09:47:21;22.30;99.90
10788;DHT22;5446;50.826;4.380;2023-07-29T09:49:47;22.20;99.90
10788;DHT22;5446;50.826;4.380;2023-07-29T09:52:15;22.00;99.90
10788;DHT22;5446;50.826;4.380;2023-07-29T09:54:43;21.80;99.90
10788;DHT22;5446;50.826;4.380;2023-07-29T09:57:13;21.90;99.90
10788;DHT22;5446;50.826;4.380;2023-07-29T09:59:39;22.10;99.90
10788;DHT22;5446;50.826;4.380;2023-07-29T10:02:09;22.30;99.90
10788;DHT22;5446;50.826;4.380;2023-07-29T10:04:38;22.40;99.90
10788;DHT22;5446;50.826;4.380;2023-07-29T10:07:05;22.50;99.90
10788;DHT22;5446;50.826;4.380;2023-07-29T10:09:31;22.50;99.90
10788;DHT22;5446;50.826;4.380;2023-07-29T10:11:57;22.60;99.90
10788;DHT22;5446;50.826;4.380;2023-07-29T10:14:24;22.60;99.90
10788;DHT22;5446;50.826;4.380;2023-07-29T10:16:53;22.60;99.90
10788;DHT22;5446;50.826;4.380;2023-07-29T10:19:20;22.70;99.90
10788;DHT22;5446;50.826;4.380;2023-07-29T10:21:48;22.60;99.90
10788;DHT22;5446;50.826;4.380;2023-07-29T10:24:19;22.60;99.90
10788;DHT22;5446;50.826;4.380;2023-07-29T10:26:49;22.60;99.90
10788;DHT22;5446;50.826;4.380;2023-07-29T10:29:19;22.60;99.90
10788;DHT22;5446;50.826;4.380;2023-07-29T10:31:47;22.50;99.90
10788;DHT22;5446;50.826;4.380;2023-07-29T10:34:14;22.40;99.90
10788;DHT22;5446;50.826;4.380;2023-07-29T10:36:41;22.20;99.90
10788;DHT22;5446;50.826;4.380;2023-07-29T10:39:07;21.90;99.90
10788;DHT22;5446;50.826;4.380;2023-07-29T10:41:55;21.70;99.90
10788;DHT22;5446;50.826;4.380;2023-07-29T10:47:14;21.50;99.90
10788;DHT22;5446;50.826;4.380;2023-07-29T10:49:44;21.50;99.90
10788;DHT22;5446;50.826;4.380;2023-07-29T10:55:01;21.50;99.90
10788;DHT22;5446;50.826;4.380;2023-07-29T10:57:35;21.50;99.90
10788;DHT22;5446;50.826;4.380;2023-07-29T11:00:02;21.50;99.90
10788;DHT22;5446;50.826;4.380;2023-07-29T11:02:31;21.50;99.90
10788;DHT22;5446;50.826;4.380;2023-07-29T11:04:57;21.30;99.90
10788;DHT22;5446;50.826;4.380;2023-07-29T11:07:27;21.20;99.90
10788;DHT22;5446;50.826;4.380;2023-07-29T11:15:27;21.00;99.90
10788;DHT22;5446;50.826;4.380;2023-07-29T11:17:58;20.90;99.90
10788;DHT22;5446;50.826;4.380;2023-07-29T11:22:51;20.70;99.90
10788;DHT22;5446;50.826;4.380;2023-07-29T11:25:18;20.70;99.90
10788;DHT22;5446;50.826;4.380;2023-07-29T11:27:45;20.80;99.90
10788;DHT22;5446;50.826;4.380;2023-07-29T11:30:12;20.90;99.90
10788;DHT22;5446;50.826;4.380;2023-07-29T11:32:39;21.00;99.90
10788;DHT22;5446;50.826;4.380;2023-07-29T11:35:13;21.10;99.90
10788;DHT22;5446;50.826;4.380;2023-07-29T11:37:42;21.40;99.90
10788;DHT22;5446;50.826;4.380;2023-07-29T11:40:08;21.60;99.90
10788;DHT22;5446;50.826;4.380;2023-07-29T11:42:37;21.80;99.90
10788;DHT22;5446;50.826;4.380;2023-07-29T11:45:05;22.00;99.90
10788;DHT22;5446;50.826;4.380;2023-07-29T11:47:34;22.20;99.90
10788;DHT22;5446;50.826;4.380;2023-07-29T11:50:07;22.40;99.90
10788;DHT22;5446;50.826;4.380;2023-07-29T11:52:39;22.50;99.90
10788;DHT22;5446;50.826;4.380;2023-07-29T11:55:06;22.50;99.90
10788;DHT22;5446;50.826;4.380;2023-07-29T11:57:35;22.50;99.90
10788;DHT22;5446;50.826;4.380;2023-07-29T12:00:05;22.40;99.90
10788;DHT22;5446;50.826;4.380;2023-07-29T12:02:32;22.60;99.90
10788;DHT22;5446;50.826;4.380;2023-07-29T12:05:00;22.60;99.90
10788;DHT22;5446;50.826;4.380;2023-07-29T12:07:26;22.50;99.90
10788;DHT22;5446;50.826;4.380;2023-07-29T12:09:52;22.20;99.90
10788;DHT22;5446;50.826;4.380;2023-07-29T12:12:18;21.90;99.90
10788;DHT22;5446;50.826;4.380;2023-07-29T12:14:47;21.70;99.90
10788;DHT22;5446;50.826;4.380;2023-07-29T12:17:12;21.60;99.90
10788;DHT22;5446;50.826;4.380;2023-07-29T12:19:39;21.30;99.90
10788;DHT22;5446;50.826;4.380;2023-07-29T12:22:08;21.10;99.90
10788;DHT22;5446;50.826;4.380;2023-07-29T12:24:36;20.90;99.90
10788;DHT22;5446;50.826;4.380;2023-07-29T12:27:02;20.90;99.90
10788;DHT22;5446;50.826;4.380;2023-07-29T12:29:28;20.80;99.90
10788;DHT22;5446;50.826;4.380;2023-07-29T12:31:59;20.80;99.90
10788;DHT22;5446;50.826;4.380;2023-07-29T12:34:26;20.90;99.90
10788;DHT22;5446;50.826;4.380;2023-07-29T12:36:57;20.90;99.90
10788;DHT22;5446;50.826;4.380;2023-07-29T12:39:30;20.90;99.90
10788;DHT22;5446;50.826;4.380;2023-07-29T12:41:58;21.00;99.90
10788;DHT22;5446;50.826;4.380;2023-07-29T12:44:25;21.10;99.90
10788;DHT22;5446;50.826;4.380;2023-07-29T12:46:51;21.20;99.90
10788;DHT22;5446;50.826;4.380;2023-07-29T12:49:17;21.40;99.90
10788;DHT22;5446;50.826;4.380;2023-07-29T12:51:43;21.40;99.90
10788;DHT22;5446;50.826;4.380;2023-07-29T12:54:09;21.60;99.90
10788;DHT22;5446;50.826;4.380;2023-07-29T12:56:35;21.70;99.90
10788;DHT22;5446;50.826;4.380;2023-07-29T12:59:01;21.90;99.90
10788;DHT22;5446;50.826;4.380;2023-07-29T13:01:27;22.00;99.90
10788;DHT22;5446;50.826;4.380;2023-07-29T13:03:54;22.10;99.90
10788;DHT22;5446;50.826;4.380;2023-07-29T13:06:20;22.30;99.90
10788;DHT22;5446;50.826;4.380;2023-07-29T13:08:47;22.50;99.90
10788;DHT22;5446;50.826;4.380;2023-07-29T13:11:15;22.70;99.90
10788;DHT22;5446;50.826;4.380;2023-07-29T13:13:41;23.00;99.90
10788;DHT22;5446;50.826;4.380;2023-07-29T13:16:07;23.00;99.90
10788;DHT22;5446;50.826;4.380;2023-07-29T13:18:33;22.90;99.90
10788;DHT22;5446;50.826;4.380;2023-07-29T13:20:59;22.80;99.90
10788;DHT22;5446;50.826;4.380;2023-07-29T13:23:26;22.80;99.90
10788;DHT22;5446;50.826;4.380;2023-07-29T13:25:52;22.70;99.90
10788;DHT22;5446;50.826;4.380;2023-07-29T13:28:18;22.60;99.90
10788;DHT22;5446;50.826;4.380;2023-07-29T13:30:45;22.70;99.90
10788;DHT22;5446;50.826;4.380;2023-07-29T13:33:10;23.10;99.90
10788;DHT22;5446;50.826;4.380;2023-07-29T13:35:36;23.20;99.90
10788;DHT22;5446;50.826;4.380;2023-07-29T13:38:02;23.10;99.90
10788;DHT22;5446;50.826;4.380;2023-07-29T13:40:28;23.20;99.90
10788;DHT22;5446;50.826;4.380;2023-07-29T13:42:54;23.40;99.90
10788;DHT22;5446;50.826;4.380;2023-07-29T13:45:20;23.40;99.90
10788;DHT22;5446;50.826;4.380;2023-07-29T13:47:46;23.50;99.90
10788;DHT22;5446;50.826;4.380;2023-07-29T13:50:12;23.60;99.90
10788;DHT22;5446;50.826;4.380;2023-07-29T13:52:38;23.60;99.90
10788;DHT22;5446;50.826;4.380;2023-07-29T13:55:05;23.40;99.90
10788;DHT22;5446;50.826;4.380;2023-07-29T13:57:31;23.10;99.90
10788;DHT22;5446;50.826;4.380;2023-07-29T13:59:57;22.90;99.90
10788;DHT22;5446;50.826;4.380;2023-07-29T14:02:23;22.80;99.90
10788;DHT22;5446;50.826;4.380;2023-07-29T14:04:49;22.80;99.90
10788;DHT22;5446;50.826;4.380;2023-07-29T14:07:15;23.00;99.90
10788;DHT22;5446;50.826;4.380;2023-07-29T14:09:40;23.10;99.90
10788;DHT22;5446;50.826;4.380;2023-07-29T14:12:08;23.20;99.90
10788;DHT22;5446;50.826;4.380;2023-07-29T14:14:38;23.30;99.90
10788;DHT22;5446;50.826;4.380;2023-07-29T14:17:04;23.20;99.90
10788;DHT22;5446;50.826;4.380;2023-07-29T14:19:30;23.20;99.90
10788;DHT22;5446;50.826;4.380;2023-07-29T14:21:56;23.20;99.90
10788;DHT22;5446;50.826;4.380;2023-07-29T14:24:22;23.50;99.90
10788;DHT22;5446;50.826;4.380;2023-07-29T14:26:48;23.60;99.90
10788;DHT22;5446;50.826;4.380;2023-07-29T14:29:14;23.50;99.90
10788;DHT22;5446;50.826;4.380;2023-07-29T14:31:41;23.70;99.90
10788;DHT22;5446;50.826;4.380;2023-07-29T14:34:06;23.70;99.90
10788;DHT22;5446;50.826;4.380;2023-07-29T14:36:32;24.00;99.90
10788;DHT22;5446;50.826;4.380;2023-07-29T14:38:58;24.00;99.90
10788;DHT22;5446;50.826;4.380;2023-07-29T14:41:24;24.00;99.90
10788;DHT22;5446;50.826;4.380;2023-07-29T14:43:50;23.80;99.90
10788;DHT22;5446;50.826;4.380;2023-07-29T14:46:15;23.90;99.90
10788;DHT22;5446;50.826;4.380;2023-07-29T14:48:44;24.00;99.90
10788;DHT22;5446;50.826;4.380;2023-07-29T14:51:10;23.90;99.90
10788;DHT22;5446;50.826;4.380;2023-07-29T14:53:36;24.00;99.90
10788;DHT22;5446;50.826;4.380;2023-07-29T14:56:02;24.00;99.90
10788;DHT22;5446;50.826;4.380;2023-07-29T14:58:27;24.00;99.90
10788;DHT22;5446;50.826;4.380;2023-07-29T15:00:53;24.10;99.90
10788;DHT22;5446;50.826;4.380;2023-07-29T15:03:19;24.10;99.90
10788;DHT22;5446;50.826;4.380;2023-07-29T15:05:44;24.00;99.90
10788;DHT22;5446;50.826;4.380;2023-07-29T15:08:10;24.10;99.90
10788;DHT22;5446;50.826;4.380;2023-07-29T15:10:36;24.20;99.90
10788;DHT22;5446;50.826;4.380;2023-07-29T15:13:02;23.90;99.90
10788;DHT22;5446;50.826;4.380;2023-07-29T15:15:28;24.00;99.90
10788;DHT22;5446;50.826;4.380;2023-07-29T15:17:54;24.20;99.90
10788;DHT22;5446;50.826;4.380;2023-07-29T15:20:19;23.90;99.90
10788;DHT22;5446;50.826;4.380;2023-07-29T15:22:45;23.80;99.90
10788;DHT22;5446;50.826;4.380;2023-07-29T15:25:11;23.90;99.90
10788;DHT22;5446;50.826;4.380;2023-07-29T15:27:37;24.20;99.90
10788;DHT22;5446;50.826;4.380;2023-07-29T15:30:04;24.50;99.90
10788;DHT22;5446;50.826;4.380;2023-07-29T15:32:30;24.50;99.90
10788;DHT22;5446;50.826;4.380;2023-07-29T15:34:56;24.20;99.90
10788;DHT22;5446;50.826;4.380;2023-07-29T15:37:22;24.00;99.90
10788;DHT22;5446;50.826;4.380;2023-07-29T15:39:50;23.60;99.90
10788;DHT22;5446;50.826;4.380;2023-07-29T15:42:16;23.30;99.90
10788;DHT22;5446;50.826;4.380;2023-07-29T15:44:41;23.00;99.90
10788;DHT22;5446;50.826;4.380;2023-07-29T15:47:07;23.10;99.90
10788;DHT22;5446;50.826;4.380;2023-07-29T15:49:33;23.30;99.90
10788;DHT22;5446;50.826;4.380;2023-07-29T15:51:58;23.50;99.90
10788;DHT22;5446;50.826;4.380;2023-07-29T15:54:25;23.50;99.90
10788;DHT22;5446;50.826;4.380;2023-07-29T15:56:51;23.30;99.90
10788;DHT22;5446;50.826;4.380;2023-07-29T15:59:17;22.90;99.90
10788;DHT22;5446;50.826;4.380;2023-07-29T16:01:44;22.90;99.90
10788;DHT22;5446;50.826;4.380;2023-07-29T16:04:10;23.00;99.90